sensor_id;sensor_type;location;lat;lon;timestamp;P1;durP1;ratioP1;P2;durP2;ratioP2
28836;SDS011;50669;50.982;11.022;2023-03-13T00:01:37;5.05;;;3.53;;
28836;SDS011;50669;50.982;11.022;2023-03-13T00:04:07;4.38;;;3.03;;
28836;SDS011;50669;50.982;11.022;2023-03-13T00:06:36;4.20;;;3.17;;
28836;SDS011;50669;50.982;11.022;2023-03-13T00:09:05;3.78;;;3.00;;
28836;SDS011;50669;50.982;11.022;2023-03-13T00:11:33;4.90;;;3.22;;
28836;SDS011;50669;50.982;11.022;2023-03-13T00:14:00;3.38;;;2.72;;
28836;SDS011;50669;50.982;11.022;2023-03-13T00:16:31;4.93;;;3.10;;
28836;SDS011;50669;50.982;11.022;2023-03-13T00:18:59;4.43;;;2.85;;
28836;SDS011;50669;50.982;11.022;2023-03-13T00:21:26;4.53;;;3.00;;
28836;SDS011;50669;50.982;11.022;2023-03-13T00:23:53;4.63;;;2.83;;
28836;SDS011;50669;50.982;11.022;2023-03-13T00:26:20;6.15;;;3.30;;
28836;SDS011;50669;50.982;11.022;2023-03-13T00:28:48;3.30;;;2.78;;
28836;SDS011;50669;50.982;11.022;2023-03-13T00:33:44;4.65;;;3.20;;
28836;SDS011;50669;50.982;11.022;2023-03-13T00:36:15;3.30;;;2.72;;
28836;SDS011;50669;50.982;11.022;2023-03-13T00:38:45;3.72;;;2.88;;
28836;SDS011;50669;50.982;11.022;2023-03-13T00:41:12;4.78;;;3.17;;
28836;SDS011;50669;50.982;11.022;2023-03-13T00:43:42;3.35;;;2.60;;
28836;SDS011;50669;50.982;11.022;2023-03-13T00:46:09;6.68;;;3.45;;
28836;SDS011;50669;50.982;11.022;2023-03-13T00:48:37;4.30;;;3.15;;
28836;SDS011;50669;50.982;11.022;2023-03-13T00:51:03;3.67;;;2.80;;
28836;SDS011;50669;50.982;11.022;2023-03-13T00:53:31;3.47;;;2.75;;
28836;SDS011;50669;50.982;11.022;2023-03-13T00:55:58;3.63;;;2.80;;
28836;SDS011;50669;50.982;11.022;2023-03-13T00:58:35;3.17;;;2.58;;
28836;SDS011;50669;50.982;11.022;2023-03-13T01:03:52;3.47;;;2.72;;
28836;SDS011;50669;50.982;11.022;2023-03-13T01:06:21;4.18;;;2.63;;
28836;SDS011;50669;50.982;11.022;2023-03-13T01:08:50;3.88;;;2.80;;
28836;SDS011;50669;50.982;11.022;2023-03-13T01:11:20;3.28;;;2.72;;
28836;SDS011;50669;50.982;11.022;2023-03-13T01:14:02;3.40;;;2.67;;
28836;SDS011;50669;50.982;11.022;2023-03-13T01:16:33;4.05;;;2.72;;
28836;SDS011;50669;50.982;11.022;2023-03-13T01:19:01;3.75;;;2.83;;
28836;SDS011;50669;50.982;11.022;2023-03-13T01:21:29;4.22;;;2.92;;
28836;SDS011;50669;50.982;11.022;2023-03-13T01:23:55;3.38;;;2.50;;
28836;SDS011;50669;50.982;11.022;2023-03-13T01:26:21;4.30;;;3.00;;
28836;SDS011;50669;50.982;11.022;2023-03-13T01:28:50;4.70;;;3.30;;
28836;SDS011;50669;50.982;11.022;2023-03-13T01:31:19;3.33;;;2.63;;
28836;SDS011;50669;50.982;11.022;2023-03-13T01:33:46;3.63;;;2.63;;
28836;SDS011;50669;50.982;11.022;2023-03-13T01:36:15;3.60;;;2.67;;
28836;SDS011;50669;50.982;11.022;2023-03-13T01:38:41;3.70;;;2.65;;
28836;SDS011;50669;50.982;11.022;2023-03-13T01:41:07;4.15;;;2.92;;
28836;SDS011;50669;50.982;11.022;2023-03-13T01:43:36;3.63;;;2.70;;
28836;SDS011;50669;50.982;11.022;2023-03-13T01:46:03;3.90;;;2.88;;
28836;SDS011;50669;50.982;11.022;2023-03-13T01:51:16;3.67;;;2.60;;
28836;SDS011;50669;50.982;11.022;2023-03-13T01:53:43;4.10;;;3.08;;
28836;SDS011;50669;50.982;11.022;2023-03-13T01:56:16;3.25;;;2.72;;
28836;SDS011;50669;50.982;11.022;2023-03-13T01:58:48;3.40;;;2.88;;
28836;SDS011;50669;50.982;11.022;2023-03-13T02:01:16;4.50;;;2.90;;
28836;SDS011;50669;50.982;11.022;2023-03-13T02:03:43;3.85;;;2.70;;
28836;SDS011;50669;50.982;11.022;2023-03-13T02:06:12;3.65;;;2.72;;
28836;SDS011;50669;50.982;11.022;2023-03-13T02:08:39;3.67;;;3.03;;
28836;SDS011;50669;50.982;11.022;2023-03-13T02:14:00;3.90;;;2.88;;
28836;SDS011;50669;50.982;11.022;2023-03-13T02:16:32;3.10;;;2.80;;
28836;SDS011;50669;50.982;11.022;2023-03-13T02:19:02;3.78;;;2.53;;
28836;SDS011;50669;50.982;11.022;2023-03-13T02:27:04;4.07;;;2.80;;
28836;SDS011;50669;50.982;11.022;2023-03-13T02:29:34;3.67;;;2.80;;
28836;SDS011;50669;50.982;11.022;2023-03-13T02:32:00;4.25;;;3.00;;
28836;SDS011;50669;50.982;11.022;2023-03-13T02:34:27;4.05;;;2.83;;
28836;SDS011;50669;50.982;11.022;2023-03-13T02:36:56;4.30;;;2.80;;
28836;SDS011;50669;50.982;11.022;2023-03-13T02:39:23;4.32;;;2.95;;
28836;SDS011;50669;50.982;11.022;2023-03-13T02:41:50;3.63;;;2.63;;
28836;SDS011;50669;50.982;11.022;2023-03-13T02:44:18;2.95;;;2.50;;
28836;SDS011;50669;50.982;11.022;2023-03-13T02:46:49;3.80;;;2.65;;
28836;SDS011;50669;50.982;11.022;2023-03-13T02:49:23;2.97;;;2.33;;
28836;SDS011;50669;50.982;11.022;2023-03-13T02:51:49;3.85;;;2.58;;
28836;SDS011;50669;50.982;11.022;2023-03-13T02:54:26;3.13;;;2.33;;
28836;SDS011;50669;50.982;11.022;2023-03-13T02:56:57;2.70;;;2.45;;
28836;SDS011;50669;50.982;11.022;2023-03-13T02:59:28;4.03;;;2.72;;
28836;SDS011;50669;50.982;11.022;2023-03-13T03:01:53;4.00;;;2.70;;
28836;SDS011;50669;50.982;11.022;2023-03-13T03:04:23;4.63;;;2.83;;
28836;SDS011;50669;50.982;11.022;2023-03-13T03:09:18;3.47;;;2.55;;
28836;SDS011;50669;50.982;11.022;2023-03-13T03:11:47;4.60;;;2.95;;
28836;SDS011;50669;50.982;11.022;2023-03-13T03:14:12;3.50;;;2.42;;
28836;SDS011;50669;50.982;11.022;2023-03-13T03:16:38;3.92;;;2.75;;
28836;SDS011;50669;50.982;11.022;2023-03-13T03:19:04;3.40;;;2.40;;
28836;SDS011;50669;50.982;11.022;2023-03-13T03:21:31;3.20;;;2.42;;
28836;SDS011;50669;50.982;11.022;2023-03-13T03:23:57;3.78;;;2.78;;
28836;SDS011;50669;50.982;11.022;2023-03-13T03:26:23;4.30;;;2.67;;
28836;SDS011;50669;50.982;11.022;2023-03-13T03:28:51;3.00;;;2.40;;
28836;SDS011;50669;50.982;11.022;2023-03-13T03:31:19;4.32;;;2.50;;
28836;SDS011;50669;50.982;11.022;2023-03-13T03:33:47;3.40;;;2.53;;
28836;SDS011;50669;50.982;11.022;2023-03-13T03:36:16;3.25;;;2.90;;
28836;SDS011;50669;50.982;11.022;2023-03-13T03:38:44;3.70;;;2.72;;
28836;SDS011;50669;50.982;11.022;2023-03-13T03:41:12;3.70;;;2.50;;
28836;SDS011;50669;50.982;11.022;2023-03-13T03:43:43;3.28;;;2.47;;
28836;SDS011;50669;50.982;11.022;2023-03-13T03:46:11;3.97;;;3.00;;
28836;SDS011;50669;50.982;11.022;2023-03-13T03:48:38;3.17;;;2.47;;
28836;SDS011;50669;50.982;11.022;2023-03-13T03:51:03;3.85;;;2.55;;
28836;SDS011;50669;50.982;11.022;2023-03-13T03:53:30;3.15;;;2.65;;
28836;SDS011;50669;50.982;11.022;2023-03-13T03:55:56;4.30;;;3.03;;
28836;SDS011;50669;50.982;11.022;2023-03-13T03:58:22;2.97;;;2.40;;
28836;SDS011;50669;50.982;11.022;2023-03-13T04:00:48;3.17;;;2.50;;
28836;SDS011;50669;50.982;11.022;2023-03-13T04:03:16;3.58;;;2.58;;
28836;SDS011;50669;50.982;11.022;2023-03-13T04:05:44;3.20;;;2.63;;
28836;SDS011;50669;50.982;11.022;2023-03-13T04:08:09;4.25;;;2.85;;
28836;SDS011;50669;50.982;11.022;2023-03-13T04:10:40;3.22;;;2.40;;
28836;SDS011;50669;50.982;11.022;2023-03-13T04:13:05;3.70;;;2.45;;
28836;SDS011;50669;50.982;11.022;2023-03-13T04:15:33;3.17;;;2.40;;
28836;SDS011;50669;50.982;11.022;2023-03-13T04:17:59;3.47;;;2.70;;
28836;SDS011;50669;50.982;11.022;2023-03-13T04:20:25;3.67;;;2.40;;
28836;SDS011;50669;50.982;11.022;2023-03-13T04:22:50;3.50;;;2.65;;
28836;SDS011;50669;50.982;11.022;2023-03-13T04:25:16;3.25;;;2.60;;
28836;SDS011;50669;50.982;11.022;2023-03-13T04:27:45;2.97;;;2.30;;
28836;SDS011;50669;50.982;11.022;2023-03-13T04:30:13;3.50;;;2.35;;
28836;SDS011;50669;50.982;11.022;2023-03-13T04:32:38;4.03;;;2.55;;
28836;SDS011;50669;50.982;11.022;2023-03-13T04:35:05;3.05;;;2.53;;
28836;SDS011;50669;50.982;11.022;2023-03-13T04:37:31;4.18;;;2.50;;
28836;SDS011;50669;50.982;11.022;2023-03-13T04:40:01;3.33;;;2.65;;
28836;SDS011;50669;50.982;11.022;2023-03-13T04:42:30;4.43;;;2.30;;
28836;SDS011;50669;50.982;11.022;2023-03-13T04:44:55;2.70;;;2.10;;
28836;SDS011;50669;50.982;11.022;2023-03-13T04:47:23;3.75;;;2.58;;
28836;SDS011;50669;50.982;11.022;2023-03-13T04:49:49;3.45;;;2.50;;
28836;SDS011;50669;50.982;11.022;2023-03-13T04:52:14;3.88;;;2.58;;
28836;SDS011;50669;50.982;11.022;2023-03-13T04:54:40;4.32;;;2.60;;
28836;SDS011;50669;50.982;11.022;2023-03-13T04:57:08;3.70;;;2.70;;
28836;SDS011;50669;50.982;11.022;2023-03-13T04:59:36;3.65;;;2.28;;
28836;SDS011;50669;50.982;11.022;2023-03-13T05:02:01;3.70;;;2.47;;
28836;SDS011;50669;50.982;11.022;2023-03-13T05:04:31;3.85;;;2.63;;
28836;SDS011;50669;50.982;11.022;2023-03-13T05:07:01;3.85;;;2.45;;
28836;SDS011;50669;50.982;11.022;2023-03-13T05:09:29;3.70;;;2.60;;
28836;SDS011;50669;50.982;11.022;2023-03-13T05:11:57;2.92;;;2.13;;
28836;SDS011;50669;50.982;11.022;2023-03-13T05:14:23;4.18;;;2.70;;
28836;SDS011;50669;50.982;11.022;2023-03-13T05:16:49;2.92;;;2.22;;
28836;SDS011;50669;50.982;11.022;2023-03-13T05:19:14;3.28;;;2.30;;
28836;SDS011;50669;50.982;11.022;2023-03-13T05:21:40;2.78;;;1.92;;
28836;SDS011;50669;50.982;11.022;2023-03-13T05:24:08;4.32;;;2.60;;
28836;SDS011;50669;50.982;11.022;2023-03-13T05:26:36;3.55;;;2.40;;
28836;SDS011;50669;50.982;11.022;2023-03-13T05:29:04;3.05;;;2.33;;
28836;SDS011;50669;50.982;11.022;2023-03-13T05:31:30;3.63;;;2.58;;
28836;SDS011;50669;50.982;11.022;2023-03-13T05:33:57;3.33;;;2.35;;
28836;SDS011;50669;50.982;11.022;2023-03-13T05:36:25;3.80;;;2.60;;
28836;SDS011;50669;50.982;11.022;2023-03-13T05:38:53;3.90;;;2.53;;
28836;SDS011;50669;50.982;11.022;2023-03-13T05:41:21;3.05;;;2.10;;
28836;SDS011;50669;50.982;11.022;2023-03-13T05:43:47;4.40;;;2.67;;
28836;SDS011;50669;50.982;11.022;2023-03-13T05:46:18;4.05;;;2.20;;
28836;SDS011;50669;50.982;11.022;2023-03-13T05:48:46;3.25;;;2.33;;
28836;SDS011;50669;50.982;11.022;2023-03-13T05:51:14;2.17;;;1.90;;
28836;SDS011;50669;50.982;11.022;2023-03-13T05:53:39;3.10;;;2.13;;
28836;SDS011;50669;50.982;11.022;2023-03-13T05:56:07;2.53;;;2.03;;
28836;SDS011;50669;50.982;11.022;2023-03-13T05:58:33;4.13;;;2.38;;
28836;SDS011;50669;50.982;11.022;2023-03-13T06:00:58;3.55;;;2.35;;
28836;SDS011;50669;50.982;11.022;2023-03-13T06:03:24;3.20;;;2.10;;
28836;SDS011;50669;50.982;11.022;2023-03-13T06:05:55;2.88;;;2.10;;
28836;SDS011;50669;50.982;11.022;2023-03-13T06:08:21;4.18;;;2.78;;
28836;SDS011;50669;50.982;11.022;2023-03-13T06:10:49;3.28;;;2.50;;
28836;SDS011;50669;50.982;11.022;2023-03-13T06:13:15;2.95;;;1.90;;
28836;SDS011;50669;50.982;11.022;2023-03-13T06:15:40;3.63;;;2.25;;
28836;SDS011;50669;50.982;11.022;2023-03-13T06:18:06;4.03;;;2.55;;
28836;SDS011;50669;50.982;11.022;2023-03-13T06:20:32;2.13;;;1.90;;
28836;SDS011;50669;50.982;11.022;2023-03-13T06:22:57;3.28;;;2.60;;
28836;SDS011;50669;50.982;11.022;2023-03-13T06:25:23;2.60;;;1.90;;
28836;SDS011;50669;50.982;11.022;2023-03-13T06:27:49;3.15;;;2.47;;
28836;SDS011;50669;50.982;11.022;2023-03-13T06:30:15;3.03;;;2.08;;
28836;SDS011;50669;50.982;11.022;2023-03-13T06:32:41;3.58;;;2.63;;
28836;SDS011;50669;50.982;11.022;2023-03-13T06:35:07;2.92;;;2.13;;
28836;SDS011;50669;50.982;11.022;2023-03-13T06:37:33;3.60;;;2.58;;
28836;SDS011;50669;50.982;11.022;2023-03-13T06:39:58;2.63;;;2.03;;
28836;SDS011;50669;50.982;11.022;2023-03-13T06:42:27;3.70;;;2.53;;
28836;SDS011;50669;50.982;11.022;2023-03-13T06:44:53;3.10;;;2.35;;
28836;SDS011;50669;50.982;11.022;2023-03-13T06:47:18;2.47;;;1.85;;
28836;SDS011;50669;50.982;11.022;2023-03-13T06:49:44;2.60;;;2.10;;
28836;SDS011;50669;50.982;11.022;2023-03-13T06:52:10;3.45;;;2.55;;
28836;SDS011;50669;50.982;11.022;2023-03-13T06:54:37;2.47;;;1.83;;
28836;SDS011;50669;50.982;11.022;2023-03-13T06:57:03;4.05;;;2.47;;
28836;SDS011;50669;50.982;11.022;2023-03-13T06:59:28;3.00;;;2.55;;
28836;SDS011;50669;50.982;11.022;2023-03-13T07:01:59;3.35;;;2.28;;
28836;SDS011;50669;50.982;11.022;2023-03-13T07:04:29;3.70;;;2.10;;
28836;SDS011;50669;50.982;11.022;2023-03-13T07:06:55;3.00;;;2.10;;
28836;SDS011;50669;50.982;11.022;2023-03-13T07:09:23;3.85;;;2.28;;
28836;SDS011;50669;50.982;11.022;2023-03-13T07:11:48;2.17;;;1.77;;
28836;SDS011;50669;50.982;11.022;2023-03-13T07:14:16;2.63;;;2.00;;
28836;SDS011;50669;50.982;11.022;2023-03-13T07:16:44;3.10;;;2.03;;
28836;SDS011;50669;50.982;11.022;2023-03-13T07:19:10;2.88;;;2.22;;
28836;SDS011;50669;50.982;11.022;2023-03-13T07:21:36;2.67;;;2.13;;
28836;SDS011;50669;50.982;11.022;2023-03-13T07:24:02;3.60;;;2.13;;
28836;SDS011;50669;50.982;11.022;2023-03-13T07:26:28;2.63;;;2.15;;
28836;SDS011;50669;50.982;11.022;2023-03-13T07:28:54;3.33;;;2.20;;
28836;SDS011;50669;50.982;11.022;2023-03-13T07:31:20;3.70;;;2.35;;
28836;SDS011;50669;50.982;11.022;2023-03-13T07:33:47;3.17;;;1.85;;
28836;SDS011;50669;50.982;11.022;2023-03-13T07:36:16;3.42;;;2.35;;
28836;SDS011;50669;50.982;11.022;2023-03-13T07:38:42;2.78;;;2.00;;
28836;SDS011;50669;50.982;11.022;2023-03-13T07:41:09;3.47;;;2.13;;
28836;SDS011;50669;50.982;11.022;2023-03-13T07:43:38;2.58;;;2.00;;
28836;SDS011;50669;50.982;11.022;2023-03-13T07:46:05;2.80;;;2.05;;
28836;SDS011;50669;50.982;11.022;2023-03-13T07:48:36;2.58;;;1.80;;
28836;SDS011;50669;50.982;11.022;2023-03-13T07:51:07;3.67;;;2.33;;
28836;SDS011;50669;50.982;11.022;2023-03-13T07:53:35;3.30;;;2.28;;
28836;SDS011;50669;50.982;11.022;2023-03-13T07:56:02;3.10;;;2.30;;
28836;SDS011;50669;50.982;11.022;2023-03-13T07:58:35;3.28;;;2.15;;
28836;SDS011;50669;50.982;11.022;2023-03-13T08:01:09;2.55;;;2.00;;
28836;SDS011;50669;50.982;11.022;2023-03-13T08:03:38;3.10;;;2.10;;
28836;SDS011;50669;50.982;11.022;2023-03-13T08:06:05;3.28;;;2.42;;
28836;SDS011;50669;50.982;11.022;2023-03-13T08:08:45;3.95;;;2.35;;
28836;SDS011;50669;50.982;11.022;2023-03-13T08:11:14;3.70;;;2.20;;
28836;SDS011;50669;50.982;11.022;2023-03-13T08:13:44;3.10;;;2.28;;
28836;SDS011;50669;50.982;11.022;2023-03-13T08:16:15;3.20;;;2.10;;
28836;SDS011;50669;50.982;11.022;2023-03-13T08:18:44;2.70;;;2.00;;
28836;SDS011;50669;50.982;11.022;2023-03-13T08:21:12;3.17;;;2.10;;
28836;SDS011;50669;50.982;11.022;2023-03-13T08:23:41;3.13;;;2.13;;
28836;SDS011;50669;50.982;11.022;2023-03-13T08:26:10;2.72;;;2.13;;
28836;SDS011;50669;50.982;11.022;2023-03-13T08:28:40;2.95;;;2.03;;
28836;SDS011;50669;50.982;11.022;2023-03-13T08:31:11;2.65;;;1.98;;
28836;SDS011;50669;50.982;11.022;2023-03-13T08:33:41;3.17;;;2.22;;
28836;SDS011;50669;50.982;11.022;2023-03-13T08:36:15;3.17;;;1.92;;
28836;SDS011;50669;50.982;11.022;2023-03-13T08:38:47;2.28;;;2.08;;
28836;SDS011;50669;50.982;11.022;2023-03-13T08:41:14;3.25;;;2.13;;
28836;SDS011;50669;50.982;11.022;2023-03-13T08:43:56;2.60;;;2.10;;
28836;SDS011;50669;50.982;11.022;2023-03-13T08:46:22;2.60;;;2.05;;
28836;SDS011;50669;50.982;11.022;2023-03-13T08:48:51;2.17;;;1.80;;
28836;SDS011;50669;50.982;11.022;2023-03-13T08:51:18;3.60;;;2.22;;
28836;SDS011;50669;50.982;11.022;2023-03-13T08:53:46;3.17;;;2.20;;
28836;SDS011;50669;50.982;11.022;2023-03-13T08:56:15;2.40;;;1.90;;
28836;SDS011;50669;50.982;11.022;2023-03-13T08:58:52;2.28;;;1.67;;
28836;SDS011;50669;50.982;11.022;2023-03-13T09:01:20;2.50;;;1.98;;
28836;SDS011;50669;50.982;11.022;2023-03-13T09:03:47;2.55;;;1.83;;
28836;SDS011;50669;50.982;11.022;2023-03-13T09:06:13;2.20;;;1.77;;
28836;SDS011;50669;50.982;11.022;2023-03-13T09:08:42;3.65;;;2.42;;
28836;SDS011;50669;50.982;11.022;2023-03-13T09:11:11;2.35;;;1.80;;
28836;SDS011;50669;50.982;11.022;2023-03-13T09:13:45;2.95;;;1.90;;
28836;SDS011;50669;50.982;11.022;2023-03-13T09:16:18;2.42;;;1.85;;
28836;SDS011;50669;50.982;11.022;2023-03-13T09:18:46;2.42;;;1.77;;
28836;SDS011;50669;50.982;11.022;2023-03-13T09:21:16;2.78;;;1.73;;
28836;SDS011;50669;50.982;11.022;2023-03-13T09:23:43;2.95;;;1.80;;
28836;SDS011;50669;50.982;11.022;2023-03-13T09:26:12;2.65;;;1.67;;
28836;SDS011;50669;50.982;11.022;2023-03-13T09:28:38;2.60;;;1.67;;
28836;SDS011;50669;50.982;11.022;2023-03-13T09:31:10;2.78;;;1.90;;
28836;SDS011;50669;50.982;11.022;2023-03-13T09:33:44;2.92;;;1.95;;
28836;SDS011;50669;50.982;11.022;2023-03-13T09:36:11;2.45;;;1.80;;
28836;SDS011;50669;50.982;11.022;2023-03-13T09:38:39;2.00;;;1.55;;
28836;SDS011;50669;50.982;11.022;2023-03-13T09:49:27;3.47;;;2.00;;
28836;SDS011;50669;50.982;11.022;2023-03-13T09:52:17;2.60;;;1.60;;
28836;SDS011;50669;50.982;11.022;2023-03-13T09:57:25;3.03;;;1.98;;
28836;SDS011;50669;50.982;11.022;2023-03-13T10:00:00;2.08;;;1.50;;
28836;SDS011;50669;50.982;11.022;2023-03-13T10:03:02;2.15;;;1.67;;
28836;SDS011;50669;50.982;11.022;2023-03-13T10:05:30;3.13;;;2.20;;
28836;SDS011;50669;50.982;11.022;2023-03-13T10:07:59;2.00;;;1.48;;
28836;SDS011;50669;50.982;11.022;2023-03-13T10:13:12;3.05;;;1.92;;
28836;SDS011;50669;50.982;11.022;2023-03-13T10:16:03;2.10;;;1.50;;
28836;SDS011;50669;50.982;11.022;2023-03-13T10:18:39;2.70;;;1.88;;
28836;SDS011;50669;50.982;11.022;2023-03-13T10:21:13;3.30;;;2.10;;
28836;SDS011;50669;50.982;11.022;2023-03-13T10:26:26;2.47;;;1.83;;
28836;SDS011;50669;50.982;11.022;2023-03-13T10:31:51;2.22;;;1.83;;
28836;SDS011;50669;50.982;11.022;2023-03-13T10:34:18;2.00;;;1.52;;
28836;SDS011;50669;50.982;11.022;2023-03-13T10:36:45;2.45;;;1.95;;
28836;SDS011;50669;50.982;11.022;2023-03-13T10:39:16;2.65;;;1.50;;
28836;SDS011;50669;50.982;11.022;2023-03-13T10:41:46;3.08;;;1.80;;
28836;SDS011;50669;50.982;11.022;2023-03-13T10:44:19;2.65;;;1.88;;
28836;SDS011;50669;50.982;11.022;2023-03-13T10:46:48;2.92;;;2.00;;
28836;SDS011;50669;50.982;11.022;2023-03-13T10:49:19;2.70;;;1.90;;
28836;SDS011;50669;50.982;11.022;2023-03-13T10:51:48;2.60;;;1.60;;
28836;SDS011;50669;50.982;11.022;2023-03-13T10:54:32;2.15;;;1.70;;
28836;SDS011;50669;50.982;11.022;2023-03-13T10:59:43;2.80;;;2.15;;
28836;SDS011;50669;50.982;11.022;2023-03-13T11:02:35;2.15;;;1.58;;
28836;SDS011;50669;50.982;11.022;2023-03-13T11:07:52;2.80;;;1.77;;
28836;SDS011;50669;50.982;11.022;2023-03-13T11:10:22;2.60;;;2.03;;
28836;SDS011;50669;50.982;11.022;2023-03-13T11:12:55;2.63;;;1.88;;
28836;SDS011;50669;50.982;11.022;2023-03-13T11:18:34;2.65;;;1.83;;
28836;SDS011;50669;50.982;11.022;2023-03-13T11:20:44;2.58;;;1.80;;
28836;SDS011;50669;50.982;11.022;2023-03-13T11:23:26;2.28;;;1.90;;
28836;SDS011;50669;50.982;11.022;2023-03-13T11:31:41;2.97;;;2.20;;
28836;SDS011;50669;50.982;11.022;2023-03-13T11:34:20;2.90;;;2.42;;
28836;SDS011;50669;50.982;11.022;2023-03-13T11:36:59;3.25;;;2.10;;
28836;SDS011;50669;50.982;11.022;2023-03-13T11:59:19;3.63;;;2.42;;
28836;SDS011;50669;50.982;11.022;2023-03-13T12:01:56;3.30;;;2.53;;
28836;SDS011;50669;50.982;11.022;2023-03-13T12:04:31;3.70;;;2.88;;
28836;SDS011;50669;50.982;11.022;2023-03-13T12:07:02;3.20;;;2.58;;
28836;SDS011;50669;50.982;11.022;2023-03-13T12:14:58;3.55;;;2.90;;
28836;SDS011;50669;50.982;11.022;2023-03-13T12:25:33;4.78;;;3.53;;
28836;SDS011;50669;50.982;11.022;2023-03-13T12:36:32;4.50;;;3.33;;
28836;SDS011;50669;50.982;11.022;2023-03-13T12:39:41;4.95;;;4.00;;
28836;SDS011;50669;50.982;11.022;2023-03-13T12:45:13;5.80;;;4.22;;
28836;SDS011;50669;50.982;11.022;2023-03-13T12:53:36;5.53;;;3.55;;
28836;SDS011;50669;50.982;11.022;2023-03-13T13:01:52;6.90;;;4.90;;
28836;SDS011;50669;50.982;11.022;2023-03-13T13:04:23;6.05;;;4.35;;
28836;SDS011;50669;50.982;11.022;2023-03-13T13:12:26;6.75;;;4.47;;
28836;SDS011;50669;50.982;11.022;2023-03-13T13:14:54;7.30;;;4.82;;
28836;SDS011;50669;50.982;11.022;2023-03-13T13:28:50;7.18;;;5.10;;
28836;SDS011;50669;50.982;11.022;2023-03-13T13:36:55;6.05;;;4.90;;
28836;SDS011;50669;50.982;11.022;2023-03-13T13:39:44;7.13;;;5.38;;
28836;SDS011;50669;50.982;11.022;2023-03-13T13:44:57;6.50;;;5.03;;
28836;SDS011;50669;50.982;11.022;2023-03-13T13:47:27;6.60;;;5.22;;
28836;SDS011;50669;50.982;11.022;2023-03-13T13:49:55;7.53;;;5.22;;
28836;SDS011;50669;50.982;11.022;2023-03-13T13:52:42;7.60;;;5.93;;
28836;SDS011;50669;50.982;11.022;2023-03-13T13:56:13;6.45;;;4.90;;
28836;SDS011;50669;50.982;11.022;2023-03-13T13:58:05;6.72;;;5.28;;
28836;SDS011;50669;50.982;11.022;2023-03-13T14:00:45;6.63;;;5.25;;
28836;SDS011;50669;50.982;11.022;2023-03-13T14:03:24;6.60;;;5.03;;
28836;SDS011;50669;50.982;11.022;2023-03-13T14:06:02;6.57;;;5.07;;
28836;SDS011;50669;50.982;11.022;2023-03-13T14:08:40;6.57;;;5.10;;
28836;SDS011;50669;50.982;11.022;2023-03-13T14:13:38;8.30;;;6.10;;
28836;SDS011;50669;50.982;11.022;2023-03-13T14:16:37;6.63;;;5.07;;
28836;SDS011;50669;50.982;11.022;2023-03-13T14:18:57;5.70;;;4.90;;
28836;SDS011;50669;50.982;11.022;2023-03-13T14:21:23;6.55;;;5.07;;
28836;SDS011;50669;50.982;11.022;2023-03-13T14:23:52;7.10;;;5.20;;
28836;SDS011;50669;50.982;11.022;2023-03-13T14:28:44;7.20;;;5.35;;
28836;SDS011;50669;50.982;11.022;2023-03-13T14:33:48;6.95;;;5.28;;
28836;SDS011;50669;50.982;11.022;2023-03-13T14:36:14;5.70;;;5.05;;
28836;SDS011;50669;50.982;11.022;2023-03-13T14:38:51;7.53;;;5.55;;
28836;SDS011;50669;50.982;11.022;2023-03-13T14:41:22;6.18;;;5.10;;
28836;SDS011;50669;50.982;11.022;2023-03-13T14:44:04;6.82;;;5.35;;
28836;SDS011;50669;50.982;11.022;2023-03-13T14:46:41;7.00;;;5.20;;
28836;SDS011;50669;50.982;11.022;2023-03-13T14:49:20;6.53;;;5.70;;
28836;SDS011;50669;50.982;11.022;2023-03-13T14:52:06;7.72;;;5.88;;
28836;SDS011;50669;50.982;11.022;2023-03-13T14:57:20;7.32;;;5.88;;
28836;SDS011;50669;50.982;11.022;2023-03-13T14:59:49;7.35;;;5.78;;
28836;SDS011;50669;50.982;11.022;2023-03-13T15:02:48;9.15;;;6.80;;
28836;SDS011;50669;50.982;11.022;2023-03-13T15:07:55;8.18;;;6.38;;
28836;SDS011;50669;50.982;11.022;2023-03-13T15:12:49;8.45;;;5.85;;
28836;SDS011;50669;50.982;11.022;2023-03-13T15:15:17;8.07;;;6.40;;
28836;SDS011;50669;50.982;11.022;2023-03-13T15:17:43;8.35;;;6.28;;
28836;SDS011;50669;50.982;11.022;2023-03-13T15:20:12;8.45;;;5.75;;
28836;SDS011;50669;50.982;11.022;2023-03-13T15:22:40;7.97;;;6.13;;
28836;SDS011;50669;50.982;11.022;2023-03-13T15:25:21;8.63;;;6.43;;
28836;SDS011;50669;50.982;11.022;2023-03-13T15:27:48;8.35;;;6.47;;
28836;SDS011;50669;50.982;11.022;2023-03-13T15:30:21;8.10;;;6.30;;
28836;SDS011;50669;50.982;11.022;2023-03-13T15:32:49;8.13;;;6.38;;
28836;SDS011;50669;50.982;11.022;2023-03-13T15:38:02;7.45;;;5.95;;
28836;SDS011;50669;50.982;11.022;2023-03-13T15:40:28;7.65;;;5.78;;
28836;SDS011;50669;50.982;11.022;2023-03-13T15:42:55;8.52;;;6.18;;
28836;SDS011;50669;50.982;11.022;2023-03-13T15:45:24;7.20;;;5.90;;
28836;SDS011;50669;50.982;11.022;2023-03-13T15:47:50;7.85;;;6.00;;
28836;SDS011;50669;50.982;11.022;2023-03-13T15:50:17;8.13;;;6.60;;
28836;SDS011;50669;50.982;11.022;2023-03-13T15:52:46;8.63;;;6.40;;
28836;SDS011;50669;50.982;11.022;2023-03-13T15:55:12;7.78;;;5.97;;
28836;SDS011;50669;50.982;11.022;2023-03-13T15:57:43;7.72;;;6.25;;
28836;SDS011;50669;50.982;11.022;2023-03-13T16:00:28;7.65;;;6.35;;
28836;SDS011;50669;50.982;11.022;2023-03-13T16:02:54;8.63;;;6.07;;
28836;SDS011;50669;50.982;11.022;2023-03-13T16:05:20;8.60;;;6.38;;
28836;SDS011;50669;50.982;11.022;2023-03-13T16:07:48;7.65;;;5.63;;
28836;SDS011;50669;50.982;11.022;2023-03-13T16:10:20;7.07;;;6.07;;
28836;SDS011;50669;50.982;11.022;2023-03-13T16:12:47;7.53;;;6.05;;
28836;SDS011;50669;50.982;11.022;2023-03-13T16:15:13;7.70;;;6.22;;
28836;SDS011;50669;50.982;11.022;2023-03-13T16:17:38;6.85;;;5.53;;
28836;SDS011;50669;50.982;11.022;2023-03-13T16:20:10;6.82;;;6.13;;
28836;SDS011;50669;50.982;11.022;2023-03-13T16:22:36;6.47;;;5.57;;
28836;SDS011;50669;50.982;11.022;2023-03-13T16:25:02;6.40;;;5.35;;
28836;SDS011;50669;50.982;11.022;2023-03-13T16:27:28;7.55;;;5.50;;
28836;SDS011;50669;50.982;11.022;2023-03-13T16:29:54;7.18;;;5.40;;
28836;SDS011;50669;50.982;11.022;2023-03-13T16:32:19;7.75;;;5.72;;
28836;SDS011;50669;50.982;11.022;2023-03-13T16:34:48;6.75;;;5.70;;
28836;SDS011;50669;50.982;11.022;2023-03-13T16:37:15;6.70;;;5.70;;
28836;SDS011;50669;50.982;11.022;2023-03-13T16:39:42;8.75;;;6.50;;
28836;SDS011;50669;50.982;11.022;2023-03-13T16:42:09;7.30;;;6.05;;
28836;SDS011;50669;50.982;11.022;2023-03-13T16:44:34;7.47;;;6.10;;
28836;SDS011;50669;50.982;11.022;2023-03-13T16:47:00;7.15;;;6.03;;
28836;SDS011;50669;50.982;11.022;2023-03-13T16:49:27;7.65;;;5.75;;
28836;SDS011;50669;50.982;11.022;2023-03-13T16:51:52;7.47;;;5.57;;
28836;SDS011;50669;50.982;11.022;2023-03-13T16:54:18;6.07;;;5.35;;
28836;SDS011;50669;50.982;11.022;2023-03-13T16:56:43;8.27;;;6.03;;
28836;SDS011;50669;50.982;11.022;2023-03-13T16:59:12;7.93;;;5.80;;
28836;SDS011;50669;50.982;11.022;2023-03-13T17:01:40;8.05;;;5.60;;
28836;SDS011;50669;50.982;11.022;2023-03-13T17:04:08;6.72;;;5.25;;
28836;SDS011;50669;50.982;11.022;2023-03-13T17:06:38;6.78;;;5.40;;
28836;SDS011;50669;50.982;11.022;2023-03-13T17:09:12;6.80;;;5.82;;
28836;SDS011;50669;50.982;11.022;2023-03-13T17:11:42;6.57;;;5.55;;
28836;SDS011;50669;50.982;11.022;2023-03-13T17:14:08;7.07;;;6.03;;
28836;SDS011;50669;50.982;11.022;2023-03-13T17:16:35;7.72;;;5.72;;
28836;SDS011;50669;50.982;11.022;2023-03-13T17:19:06;7.40;;;5.55;;